Time;durP1;ratioP1;P1;durP2;ratioP2;P2;SDS_P1;SDS_P2;PMS_P1;PMS_P2;Temp;Humidity;BMP_temperature;BMP_pressure;BME280_temperature;BME280_humidity;BME280_pressure;Samples;Min_cycle;Max_cycle;Signal;HPM_P1;HPM_P2
2022/12/19 00:01:27;;;;;;;5.60;5.20;;;0.60;99.90;;;;;;5047291;28;20215;-71
2022/12/19 00:03:58;;;;;;;6.25;5.85;;;0.60;99.90;;;;;;5043974;28;20540;-71
2022/12/19 00:06:26;;;;;;;6.10;5.60;;;0.60;99.90;;;;;;5045608;28;20623;-71
2022/12/19 00:08:55;;;;;;;5.78;5.38;;;0.50;99.90;;;;;;5044805;28;20199;-71
2022/12/19 00:11:25;;;;;;;5.88;5.47;;;0.50;99.90;;;;;;5026726;28;20298;-71
2022/12/19 00:13:52;;;;;;;5.82;5.43;;;0.60;99.90;;;;;;5044018;28;20202;-71
2022/12/19 00:16:21;;;;;;;5.93;5.50;;;0.60;99.90;;;;;;5043198;28;20235;-71
2022/12/19 00:18:50;;;;;;;5.60;5.10;;;0.60;99.90;;;;;;5047290;28;20199;-72
2022/12/19 00:21:21;;;;;;;5.63;5.22;;;0.60;99.90;;;;;;5045221;28;20222;-72
2022/12/19 00:23:50;;;;;;;5.13;4.82;;;0.60;99.90;;;;;;5044340;28;20226;-73
2022/12/19 00:26:19;;;;;;;5.72;5.32;;;0.60;99.90;;;;;;5040999;28;20223;-72
2022/12/19 00:28:48;;;;;;;5.15;4.85;;;0.70;99.90;;;;;;5042914;28;20203;-72
2022/12/19 00:31:16;;;;;;;5.35;4.90;;;0.70;99.90;;;;;;5041044;28;20218;-72
2022/12/19 00:33:45;;;;;;;5.55;5.15;;;0.70;99.90;;;;;;5046761;28;20191;-72
2022/12/19 00:36:14;;;;;;;5.70;5.30;;;0.70;99.90;;;;;;5041949;28;20225;-72
2022/12/19 00:38:43;;;;;;;5.25;4.85;;;0.70;99.90;;;;;;5044293;28;20210;-72
2022/12/19 00:41:12;;;;;;;4.97;4.60;;;0.80;99.90;;;;;;5048410;28;20223;-72
2022/12/19 00:43:41;;;;;;;5.43;5.03;;;0.80;99.90;;;;;;5045578;28;20226;-72
2022/12/19 00:46:12;;;;;;;5.45;5.05;;;0.80;99.90;;;;;;5040666;28;20234;-72
2022/12/19 00:48:39;;;;;;;5.78;5.38;;;0.80;99.90;;;;;;5042845;28;20195;-72
2022/12/19 00:51:10;;;;;;;6.03;5.53;;;0.80;99.90;;;;;;5043609;28;20222;-72
2022/12/19 00:53:38;;;;;;;6.07;5.47;;;0.80;99.90;;;;;;5043288;28;20202;-71
2022/12/19 00:56:09;;;;;;;6.25;5.75;;;0.70;99.90;;;;;;5044291;28;20219;-72
2022/12/19 00:58:36;;;;;;;5.22;4.82;;;0.70;99.90;;;;;;5045210;28;20203;-71
2022/12/19 01:01:06;;;;;;;5.82;5.32;;;0.70;99.90;;;;;;5052660;28;20223;-71
2022/12/19 01:03:35;;;;;;;5.18;4.78;;;0.70;99.90;;;;;;5045744;28;20306;-71
2022/12/19 01:06:02;;;;;;;5.85;5.35;;;0.70;99.90;;;;;;5040345;28;20225;-72
2022/12/19 01:08:30;;;;;;;6.32;5.72;;;0.70;99.90;;;;;;5044799;28;20199;-72
2022/12/19 01:10:57;;;;;;;5.72;5.32;;;0.70;99.90;;;;;;5043103;28;20273;-72
2022/12/19 01:13:28;;;;;;;5.40;5.00;;;0.70;99.90;;;;;;5043639;28;20199;-72
2022/12/19 01:15:56;;;;;;;5.97;5.47;;;0.60;99.90;;;;;;5045278;28;20996;-72
2022/12/19 01:18:23;;;;;;;5.93;5.43;;;0.60;99.90;;;;;;5043070;28;20207;-72
2022/12/19 01:20:51;;;;;;;5.97;5.47;;;0.60;99.90;;;;;;5043450;28;20276;-72
2022/12/19 01:23:18;;;;;;;6.18;5.70;;;0.50;99.90;;;;;;5042667;28;20206;-72
2022/12/19 01:25:52;;;;;;;6.20;5.68;;;0.50;99.90;;;;;;5035081;28;20222;-72
2022/12/19 01:28:20;;;;;;;6.30;5.80;;;0.40;99.90;;;;;;5039845;28;20198;-72
2022/12/19 01:30:49;;;;;;;5.07;4.68;;;0.40;99.90;;;;;;5041538;28;20219;-72
2022/12/19 01:33:18;;;;;;;6.07;5.57;;;0.50;99.90;;;;;;5040978;28;20253;-72
2022/12/19 01:35:47;;;;;;;6.00;5.50;;;0.60;99.90;;;;;;5045295;28;20333;-72
2022/12/19 01:38:15;;;;;;;5.18;4.78;;;0.60;99.90;;;;;;5041804;28;20582;-72
2022/12/19 01:40:51;;;;;;;5.60;5.20;;;0.70;99.90;;;;;;5041522;28;20229;-72
2022/12/19 01:43:18;;;;;;;7.05;6.53;;;0.80;99.90;;;;;;5041897;28;20204;-72
2022/12/19 01:45:50;;;;;;;5.63;5.22;;;0.80;99.90;;;;;;5027725;28;20280;-72
2022/12/19 01:48:20;;;;;;;5.45;5.10;;;0.80;99.90;;;;;;5038718;28;20494;-72
2022/12/19 01:50:55;;;;;;;6.50;5.90;;;0.70;99.90;;;;;;5042568;28;20219;-72
2022/12/19 01:53:25;;;;;;;5.40;5.00;;;0.70;99.90;;;;;;5041292;28;20206;-73
2022/12/19 01:55:53;;;;;;;5.10;4.80;;;0.70;99.90;;;;;;5043990;28;20877;-71
2022/12/19 01:58:20;;;;;;;5.63;5.13;;;0.60;99.90;;;;;;5044466;28;20203;-72
2022/12/19 02:00:50;;;;;;;6.47;5.45;;;0.60;99.90;;;;;;5041087;28;20276;-72
2022/12/19 02:03:25;;;;;;;5.28;4.88;;;0.60;99.90;;;;;;5045500;28;20227;-72
2022/12/19 02:05:53;;;;;;;5.25;4.93;;;0.60;99.90;;;;;;5039679;28;20218;-72
2022/12/19 02:08:22;;;;;;;5.50;5.10;;;0.50;99.90;;;;;;5039961;28;20199;-72
2022/12/19 02:10:50;;;;;;;5.47;5.07;;;0.50;99.90;;;;;;5046578;28;20219;-72
2022/12/19 02:13:18;;;;;;;5.65;5.25;;;0.50;99.90;;;;;;5041757;28;20195;-72
2022/12/19 02:15:53;;;;;;;5.22;4.82;;;0.50;99.90;;;;;;5039614;28;20730;-72
2022/12/19 02:18:30;;;;;;;5.63;5.22;;;0.40;99.90;;;;;;5041012;28;20190;-72
2022/12/19 02:21:21;;;;;;;4.95;4.65;;;0.40;99.90;;;;;;5041498;28;20710;-73
2022/12/19 02:24:25;;;;;;;5.50;5.10;;;0.40;99.90;;;;;;5040509;28;20219;-72
2022/12/19 02:27:11;;;;;;;4.78;4.47;;;0.30;99.90;;;;;;5043049;28;20281;-72
2022/12/19 02:30:05;;;;;;;5.07;4.78;;;0.30;99.90;;;;;;5044149;28;20195;-72
2022/12/19 02:32:45;;;;;;;4.78;4.47;;;0.30;99.90;;;;;;5039214;28;20219;-72
2022/12/19 02:35:27;;;;;;;5.15;4.75;;;0.30;99.90;;;;;;5043120;28;20448;-73
2022/12/19 02:38:03;;;;;;;4.82;4.53;;;0.30;99.90;;;;;;5065761;28;20227;-73
2022/12/19 02:40:36;;;;;;;5.25;4.95;;;0.30;99.90;;;;;;5063318;28;20251;-72
2022/12/19 02:43:05;;;;;;;4.60;4.30;;;0.40;99.90;;;;;;5063731;28;20222;-72
2022/12/19 02:45:37;;;;;;;4.70;4.40;;;0.30;99.90;;;;;;5063259;28;20222;-72
2022/12/19 02:48:08;;;;;;;5.43;5.03;;;0.40;99.90;;;;;;5067329;28;20203;-72
2022/12/19 02:50:39;;;;;;;5.45;5.00;;;0.40;99.90;;;;;;5065400;28;20190;-73
2022/12/19 02:53:09;;;;;;;4.68;4.38;;;0.50;99.90;;;;;;5070199;28;20206;-72
2022/12/19 02:55:44;;;;;;;5.00;4.70;;;0.50;99.90;;;;;;5063622;28;20219;-73
2022/12/19 02:58:43;;;;;;;5.05;4.70;;;0.50;99.90;;;;;;5073486;28;20193;-72
2022/12/19 03:01:22;;;;;;;5.10;4.80;;;0.50;99.90;;;;;;5077373;28;20240;-72
2022/12/19 03:04:05;;;;;;;5.20;4.80;;;0.50;99.90;;;;;;5070707;28;20198;-72
2022/12/19 03:06:38;;;;;;;5.20;4.85;;;0.50;99.90;;;;;;5074384;28;20701;-72
2022/12/19 03:09:17;;;;;;;5.00;4.70;;;0.50;99.90;;;;;;5076575;28;20198;-72
2022/12/19 03:11:47;;;;;;;5.13;4.78;;;0.50;99.90;;;;;;5069967;28;20213;-72
2022/12/19 03:14:16;;;;;;;5.55;5.25;;;0.50;99.90;;;;;;5073569;28;20200;-72
2022/12/19 03:16:44;;;;;;;5.07;4.78;;;0.50;99.90;;;;;;5071021;28;20226;-74
2022/12/19 03:19:14;;;;;;;5.22;4.82;;;0.60;99.90;;;;;;5068774;28;20672;-72
2022/12/19 03:21:44;;;;;;;5.05;4.75;;;0.60;99.90;;;;;;5080396;28;20591;-72
2022/12/19 03:24:14;;;;;;;5.43;5.05;;;0.60;99.90;;;;;;5070445;28;20218;-72
2022/12/19 03:26:48;;;;;;;5.47;5.07;;;0.50;99.90;;;;;;5069382;28;20217;-72
2022/12/19 03:29:20;;;;;;;5.50;5.10;;;0.50;99.90;;;;;;5079707;28;20197;-72
2022/12/19 03:31:48;;;;;;;5.32;4.93;;;0.50;99.90;;;;;;5071547;28;20210;-72
2022/12/19 03:34:21;;;;;;;5.13;4.82;;;0.50;99.90;;;;;;5067195;28;20612;-72
2022/12/19 03:36:54;;;;;;;4.70;4.40;;;0.40;99.90;;;;;;5074655;28;20240;-72
2022/12/19 03:39:23;;;;;;;4.95;4.65;;;0.40;99.90;;;;;;5072369;28;20244;-72
2022/12/19 03:44:41;;;;;;;4.63;4.22;;;0.40;99.90;;;;;;5076966;28;20220;-72
2022/12/19 03:47:13;;;;;;;5.13;4.72;;;0.40;99.90;;;;;;5073303;28;20229;-72
2022/12/19 03:49:42;;;;;;;5.03;4.72;;;0.40;99.90;;;;;;5078163;28;20198;-72
2022/12/19 03:52:20;;;;;;;4.90;4.60;;;0.40;99.90;;;;;;5072027;28;20224;-72
2022/12/19 03:54:53;;;;;;;4.68;4.25;;;0.50;99.90;;;;;;5079850;28;20259;-72
2022/12/19 03:57:24;;;;;;;5.53;5.13;;;0.40;99.90;;;;;;5078396;28;20214;-72
2022/12/19 03:59:55;;;;;;;5.28;4.93;;;0.40;99.90;;;;;;5066854;28;20637;-72
2022/12/19 04:02:23;;;;;;;5.38;4.97;;;0.40;99.90;;;;;;5075240;28;20226;-72
2022/12/19 04:04:58;;;;;;;5.55;5.15;;;0.30;99.90;;;;;;5067892;28;20233;-72
2022/12/19 04:07:26;;;;;;;5.00;4.70;;;0.30;99.90;;;;;;5075951;28;20223;-72
2022/12/19 04:09:56;;;;;;;5.25;4.88;;;0.30;99.90;;;;;;5067857;28;20204;-72
2022/12/19 04:12:28;;;;;;;5.07;4.68;;;0.30;99.90;;;;;;5071104;28;20221;-72
2022/12/19 04:14:56;;;;;;;4.97;4.68;;;0.40;99.90;;;;;;5075120;28;20631;-72
2022/12/19 04:17:30;;;;;;;5.00;4.70;;;0.40;99.90;;;;;;5073354;28;20601;-73
2022/12/19 04:20:03;;;;;;;5.32;4.93;;;0.40;99.90;;;;;;5073256;28;20211;-72
2022/12/19 04:22:35;;;;;;;4.88;4.57;;;0.40;99.90;;;;;;5070139;28;20706;-72
2022/12/19 04:25:06;;;;;;;5.28;4.88;;;0.50;99.90;;;;;;5067822;28;20218;-73
2022/12/19 04:27:36;;;;;;;4.90;4.60;;;0.50;99.90;;;;;;5070472;28;20222;-73
2022/12/19 04:30:07;;;;;;;5.20;4.80;;;0.50;99.90;;;;;;5092884;22;20275;-77
2022/12/19 04:32:36;;;;;;;4.97;4.68;;;0.50;99.90;;;;;;5091135;28;20233;-76
2022/12/19 04:35:05;;;;;;;4.90;4.60;;;0.40;99.90;;;;;;5093204;28;20189;-76
2022/12/19 04:37:33;;;;;;;4.88;4.47;;;0.40;99.90;;;;;;5081509;28;20234;-75
2022/12/19 04:40:00;;;;;;;5.03;4.72;;;0.40;99.90;;;;;;5094749;28;20204;-76
2022/12/19 04:42:27;;;;;;;5.50;5.10;;;0.40;99.90;;;;;;5093956;28;20641;-76
2022/12/19 04:44:54;;;;;;;5.38;4.97;;;0.30;99.90;;;;;;5094682;28;20699;-74
2022/12/19 04:47:21;;;;;;;5.38;5.07;;;0.30;99.90;;;;;;5085410;28;20704;-75
2022/12/19 04:49:48;;;;;;;5.85;5.45;;;0.30;99.90;;;;;;5086729;28;20236;-74
2022/12/19 04:52:16;;;;;;;5.80;5.40;;;0.30;99.90;;;;;;5082266;28;20222;-75
2022/12/19 04:54:43;;;;;;;8.60;8.00;;;0.30;99.90;;;;;;5091170;28;20201;-75
2022/12/19 04:57:11;;;;;;;8.15;7.55;;;0.20;99.90;;;;;;5094152;28;20217;-75
2022/12/19 04:59:38;;;;;;;7.00;6.50;;;0.30;99.90;;;;;;5094248;28;20209;-76
2022/12/19 05:02:05;;;;;;;6.63;6.13;;;0.20;99.90;;;;;;5088194;28;20597;-77
2022/12/19 05:04:32;;;;;;;5.70;5.30;;;0.30;99.90;;;;;;5087263;28;20221;-76
2022/12/19 05:06:59;;;;;;;6.00;5.60;;;0.30;99.90;;;;;;5085649;28;20217;-75
2022/12/19 05:09:27;;;;;;;5.50;5.20;;;0.30;99.90;;;;;;5083707;28;20201;-75
2022/12/19 05:11:54;;;;;;;5.72;5.43;;;0.30;99.90;;;;;;5091432;28;20225;-74
2022/12/19 05:14:21;;;;;;;5.10;4.80;;;0.30;99.90;;;;;;5094821;28;20576;-76
2022/12/19 05:16:48;;;;;;;5.38;4.97;;;0.30;99.90;;;;;;5084927;28;20228;-75
2022/12/19 05:19:15;;;;;;;4.95;4.55;;;0.30;99.90;;;;;;5094508;28;20552;-76
2022/12/19 05:21:42;;;;;;;5.38;4.90;;;0.30;99.90;;;;;;5096526;28;20222;-75
2022/12/19 05:24:09;;;;;;;5.20;4.80;;;0.20;99.90;;;;;;5095027;28;20198;-75
2022/12/19 05:29:09;;;;;;;5.45;5.07;;;0.20;99.90;;;;;;5071972;28;20276;-76
2022/12/19 05:31:36;;;;;;;5.38;4.90;;;0.30;99.90;;;;;;5046043;28;20227;-74
2022/12/19 05:34:05;;;;;;;5.82;5.30;;;0.30;99.90;;;;;;5025671;28;20195;-76
2022/12/19 05:36:33;;;;;;;5.60;5.13;;;0.30;99.90;;;;;;5031662;28;20742;-75
2022/12/19 05:39:00;;;;;;;5.53;5.13;;;0.20;99.90;;;;;;5031617;28;20210;-77
2022/12/19 05:41:27;;;;;;;5.50;5.10;;;0.20;99.90;;;;;;5028409;28;20793;-75
2022/12/19 05:43:56;;;;;;;5.43;5.03;;;0.20;99.90;;;;;;5043251;28;20644;-75
2022/12/19 05:46:26;;;;;;;5.78;5.28;;;0.20;99.90;;;;;;5046447;28;20232;-75
2022/12/19 05:48:53;;;;;;;5.55;5.15;;;0.20;99.90;;;;;;5044711;28;20203;-76
2022/12/19 05:51:21;;;;;;;4.78;4.38;;;0.30;99.90;;;;;;5027951;28;20218;-75
2022/12/19 05:53:50;;;;;;;5.57;5.10;;;0.30;99.90;;;;;;5043289;28;20284;-77
2022/12/19 05:56:19;;;;;;;4.40;4.10;;;0.30;99.90;;;;;;5045179;28;20215;-77
2022/12/19 05:58:47;;;;;;;5.15;4.78;;;0.30;99.90;;;;;;5047783;28;20198;-77
2022/12/19 06:01:17;;;;;;;4.93;4.63;;;0.40;99.90;;;;;;5027234;28;20259;-75
2022/12/19 06:03:46;;;;;;;4.57;4.28;;;0.30;99.90;;;;;;5049236;28;20199;-77
2022/12/19 06:06:16;;;;;;;4.47;4.18;;;0.40;99.90;;;;;;5048006;28;20226;-76
2022/12/19 06:08:43;;;;;;;4.78;4.47;;;0.30;99.90;;;;;;5044418;28;20248;-77
2022/12/19 06:11:14;;;;;;;4.40;4.10;;;0.30;99.90;;;;;;5047730;28;20222;-76
2022/12/19 06:13:41;;;;;;;4.88;4.57;;;0.40;99.90;;;;;;5042691;28;20194;-76
2022/12/19 06:16:11;;;;;;;4.68;4.38;;;0.30;99.90;;;;;;5023810;28;20218;-75
2022/12/19 06:18:40;;;;;;;4.72;4.38;;;0.40;99.90;;;;;;5022523;28;20260;-76
2022/12/19 06:21:13;;;;;;;4.57;4.28;;;0.40;99.90;;;;;;5042375;28;20719;-77
2022/12/19 06:23:40;;;;;;;4.88;4.53;;;0.40;99.90;;;;;;5042419;28;20203;-76
2022/12/19 06:26:10;;;;;;;5.32;4.93;;;0.30;99.90;;;;;;5040165;28;20230;-76
2022/12/19 06:28:38;;;;;;;5.32;5.03;;;0.30;99.90;;;;;;5025796;28;20210;-76
2022/12/19 06:31:06;;;;;;;4.88;4.57;;;0.30;99.90;;;;;;5043389;28;20227;-77
2022/12/19 06:33:34;;;;;;;5.82;5.43;;;0.30;99.90;;;;;;5024733;28;20252;-76
2022/12/19 06:36:04;;;;;;;5.15;4.85;;;0.30;99.90;;;;;;5020108;28;20214;-76
2022/12/19 06:38:34;;;;;;;5.45;5.05;;;0.30;99.90;;;;;;5041838;28;20195;-77
2022/12/19 06:43:50;;;;;;;5.20;4.80;;;0.40;99.90;;;;;;5020675;28;20668;-76
2022/12/19 06:46:18;;;;;;;5.45;5.05;;;0.40;99.90;;;;;;5043356;28;20218;-77
2022/12/19 06:48:45;;;;;;;4.57;4.28;;;0.40;99.90;;;;;;5021648;28;20575;-77
2022/12/19 06:51:12;;;;;;;5.25;4.95;;;0.40;99.90;;;;;;5039944;28;20234;-75
2022/12/19 06:53:41;;;;;;;4.90;4.60;;;0.40;99.90;;;;;;5045378;28;20214;-77
2022/12/19 06:56:09;;;;;;;5.00;4.70;;;0.40;99.90;;;;;;5045023;28;20971;-76
2022/12/19 06:58:37;;;;;;;4.50;4.20;;;0.50;99.90;;;;;;5045013;28;20198;-77
2022/12/19 07:01:04;;;;;;;4.43;4.13;;;0.50;99.90;;;;;;5038234;28;20214;-75
2022/12/19 07:03:36;;;;;;;4.75;4.40;;;0.50;99.90;;;;;;5019465;28;20425;-74
2022/12/19 07:06:04;;;;;;;4.47;4.28;;;0.50;99.90;;;;;;5038170;28;20222;-75
2022/12/19 07:08:32;;;;;;;4.88;4.47;;;0.50;99.90;;;;;;5039739;28;20198;-77
2022/12/19 07:11:01;;;;;;;4.68;4.38;;;0.50;99.90;;;;;;5038697;28;20739;-75
2022/12/19 07:13:28;;;;;;;5.25;4.95;;;0.50;99.90;;;;;;5040935;28;20434;-76
2022/12/19 07:16:01;;;;;;;4.78;4.47;;;0.50;99.90;;;;;;5036788;28;20246;-76
2022/12/19 07:18:30;;;;;;;4.97;4.60;;;0.50;99.90;;;;;;5038946;28;20203;-77
2022/12/19 07:20:58;;;;;;;5.20;4.90;;;0.50;99.90;;;;;;5039056;28;20230;-75
2022/12/19 07:23:25;;;;;;;4.93;4.63;;;0.50;99.90;;;;;;5046886;28;20203;-76
2022/12/19 07:25:53;;;;;;;5.00;4.70;;;0.60;99.90;;;;;;5045624;28;20223;-76
2022/12/19 07:28:21;;;;;;;4.55;4.25;;;0.60;99.90;;;;;;5043690;28;20252;-75
2022/12/19 07:30:49;;;;;;;4.18;3.90;;;0.60;99.90;;;;;;5043559;28;20222;-76
2022/12/19 07:33:16;;;;;;;5.50;5.10;;;0.60;99.90;;;;;;5041397;28;20202;-76
2022/12/19 07:35:44;;;;;;;4.90;4.60;;;0.60;99.90;;;;;;5024395;28;20255;-76
2022/12/19 07:38:11;;;;;;;4.63;4.32;;;0.70;99.90;;;;;;5044044;28;20202;-77
2022/12/19 07:40:38;;;;;;;6.00;5.50;;;0.70;99.90;;;;;;5036204;28;20219;-76
2022/12/19 07:43:07;;;;;;;5.18;4.78;;;0.70;99.90;;;;;;5047621;28;20202;-77
2022/12/19 07:45:38;;;;;;;5.13;4.82;;;0.70;99.90;;;;;;5027475;28;20223;-77
2022/12/19 07:48:07;;;;;;;6.28;5.78;;;0.70;99.90;;;;;;5046039;28;20195;-77
2022/12/19 07:50:35;;;;;;;7.45;6.85;;;0.80;99.90;;;;;;5021609;28;20266;-76
2022/12/19 07:53:02;;;;;;;6.82;6.25;;;0.80;99.90;;;;;;5045532;28;20202;-76
2022/12/19 07:55:30;;;;;;;6.97;6.38;;;0.90;99.90;;;;;;5027812;28;20261;-77
2022/12/19 07:57:57;;;;;;;6.53;5.95;;;0.90;99.90;;;;;;5028957;28;20202;-77
2022/12/19 08:00:25;;;;;;;7.68;6.90;;;1.00;99.90;;;;;;5045648;28;20218;-77
2022/12/19 08:02:54;;;;;;;6.97;6.38;;;1.00;99.90;;;;;;5027363;28;20203;-76
2022/12/19 08:05:21;;;;;;;6.57;6.03;;;1.00;99.90;;;;;;5047680;28;20612;-76
2022/12/19 08:07:49;;;;;;;6.97;6.30;;;1.00;99.90;;;;;;5047386;28;20652;-77
2022/12/19 08:10:18;;;;;;;6.78;6.10;;;1.00;99.90;;;;;;5043695;28;20216;-76
2022/12/19 08:12:45;;;;;;;7.03;6.50;;;1.10;99.90;;;;;;5046628;28;20588;-77
2022/12/19 08:15:13;;;;;;;6.53;6.03;;;1.10;99.90;;;;;;5030764;28;20207;-77
2022/12/19 08:17:41;;;;;;;6.53;6.03;;;1.20;99.90;;;;;;5043922;28;20223;-77
2022/12/19 08:20:12;;;;;;;6.05;5.55;;;1.20;99.90;;;;;;5045298;28;20269;-77
2022/12/19 08:22:40;;;;;;;6.47;5.97;;;1.30;99.90;;;;;;5027550;28;20669;-76
2022/12/19 08:25:09;;;;;;;6.03;5.63;;;1.30;99.90;;;;;;5049618;28;20214;-77
2022/12/19 08:27:36;;;;;;;6.40;5.90;;;1.40;99.90;;;;;;5044198;28;20234;-77
2022/12/19 08:30:04;;;;;;;6.22;5.82;;;1.50;99.90;;;;;;5050181;28;20215;-77
2022/12/19 08:32:31;;;;;;;5.72;5.32;;;1.50;99.90;;;;;;5042758;28;20219;-76
2022/12/19 08:34:59;;;;;;;5.60;5.20;;;1.60;99.90;;;;;;5047024;28;20581;-77
2022/12/19 08:37:28;;;;;;;6.53;6.03;;;1.50;99.90;;;;;;5047089;28;20221;-77
2022/12/19 08:39:55;;;;;;;6.97;6.40;;;1.50;99.90;;;;;;5044915;28;20221;-77
2022/12/19 08:42:22;;;;;;;7.18;6.57;;;1.30;99.90;;;;;;5042025;28;20735;-77
2022/12/19 08:44:50;;;;;;;7.43;6.80;;;1.30;99.90;;;;;;5045283;28;20195;-77
2022/12/19 08:47:17;;;;;;;6.78;6.18;;;1.40;99.90;;;;;;5046664;28;20223;-75
2022/12/19 08:49:45;;;;;;;6.10;5.43;;;1.40;99.90;;;;;;5048058;28;20218;-76
2022/12/19 08:52:12;;;;;;;7.20;6.60;;;1.40;99.90;;;;;;5041608;28;20222;-77
2022/12/19 08:54:44;;;;;;;15.80;13.85;;;1.40;99.90;;;;;;5042532;28;20208;-76
2022/12/19 08:57:11;;;;;;;10.98;9.20;;;1.50;99.90;;;;;;5038876;28;20206;-76
2022/12/19 08:59:39;;;;;;;10.43;8.75;;;1.50;99.90;;;;;;5044106;28;20210;-76
2022/12/19 09:02:07;;;;;;;9.00;8.10;;;1.60;99.90;;;;;;5030195;28;20252;-77
2022/12/19 09:04:35;;;;;;;8.38;7.55;;;1.60;99.90;;;;;;5041196;28;20696;-78
2022/12/19 09:07:02;;;;;;;9.07;8.23;;;1.70;99.90;;;;;;5045119;28;20211;-77
2022/12/19 09:09:30;;;;;;;8.55;7.85;;;1.80;99.90;;;;;;5043834;28;20199;-76
2022/12/19 09:11:59;;;;;;;7.95;7.35;;;1.80;99.90;;;;;;5024958;28;20191;-77
2022/12/19 09:14:26;;;;;;;8.73;7.93;;;1.90;99.90;;;;;;5045721;28;20195;-76
2022/12/19 09:16:53;;;;;;;8.27;6.95;;;1.80;99.90;;;;;;5042114;28;20202;-78
2022/12/19 09:19:21;;;;;;;8.73;7.97;;;1.80;99.90;;;;;;5025234;28;20191;-76
2022/12/19 09:21:48;;;;;;;7.40;6.80;;;1.80;99.90;;;;;;5039802;28;20195;-76
2022/12/19 09:24:16;;;;;;;7.45;6.70;;;1.80;99.90;;;;;;5036076;28;20811;-77
2022/12/19 09:26:45;;;;;;;6.80;6.22;;;1.80;99.90;;;;;;5016818;28;20222;-76
2022/12/19 09:29:14;;;;;;;7.10;6.43;;;1.80;99.90;;;;;;5043667;28;20599;-77
2022/12/19 09:31:41;;;;;;;6.88;6.28;;;1.90;99.90;;;;;;5045114;28;20667;-77
2022/12/19 09:34:09;;;;;;;7.57;6.90;;;2.00;99.90;;;;;;5040746;28;20229;-77
2022/12/19 09:36:37;;;;;;;7.50;6.70;;;2.10;99.90;;;;;;5025972;28;20206;-75
2022/12/19 09:39:04;;;;;;;8.25;7.50;;;2.20;99.90;;;;;;5037987;28;20214;-76
2022/12/19 09:41:55;;;;;;;7.95;7.25;;;2.30;99.90;;;;;;5026075;28;20218;-75
2022/12/19 09:44:36;;;;;;;8.27;7.47;;;2.40;99.90;;;;;;5037676;28;20379;-76
2022/12/19 09:47:10;;;;;;;8.57;7.30;;;2.40;99.90;;;;;;5043543;28;22118;-79
2022/12/19 09:49:40;;;;;;;8.68;7.78;;;2.50;99.90;;;;;;5044262;28;20233;-75
2022/12/19 09:52:14;;;;;;;9.57;7.30;;;2.70;99.90;;;;;;5007737;28;20266;-75
2022/12/19 09:54:44;;;;;;;9.23;7.28;;;2.70;99.90;;;;;;5034091;28;20222;-75
2022/12/19 09:57:16;;;;;;;7.38;6.68;;;2.70;99.90;;;;;;5036058;28;20191;-75
2022/12/19 09:59:49;;;;;;;7.72;7.03;;;2.60;99.90;;;;;;5041833;28;20249;-75
2022/12/19 10:02:35;;;;;;;7.43;6.75;;;2.60;99.90;;;;;;5040531;28;20207;-75
2022/12/19 10:05:10;;;;;;;7.72;7.00;;;2.70;99.90;;;;;;5027873;28;20711;-75
2022/12/19 10:07:38;;;;;;;8.05;7.25;;;2.80;99.90;;;;;;5040768;28;20214;-75
2022/12/19 10:10:06;;;;;;;6.78;6.25;;;2.90;99.90;;;;;;5039027;28;20227;-75
2022/12/19 10:13:10;;;;;;;7.88;7.07;;;3.10;99.90;;;;;;5039502;28;20195;-73
2022/12/19 10:15:50;;;;;;;7.60;6.68;;;3.20;99.90;;;;;;4978644;28;20298;-75
2022/12/19 10:18:30;;;;;;;8.07;7.15;;;3.30;99.90;;;;;;5021540;28;20211;-76
2022/12/19 10:21:04;;;;;;;8.27;7.47;;;3.40;99.90;;;;;;5033779;28;20219;-75
2022/12/19 10:23:49;;;;;;;8.52;7.75;;;3.50;99.90;;;;;;5034494;28;20207;-74
2022/12/19 10:26:20;;;;;;;8.90;8.00;;;3.50;99.90;;;;;;5021465;28;20865;-74
2022/12/19 10:29:04;;;;;;;9.80;8.80;;;3.50;99.90;;;;;;5042757;28;20247;-74
2022/12/19 10:31:39;;;;;;;9.35;8.45;;;3.50;99.90;;;;;;5022148;28;20746;-73
2022/12/19 10:34:17;;;;;;;9.02;8.13;;;3.40;99.90;;;;;;5018439;28;20704;-74
2022/12/19 10:36:47;;;;;;;8.65;7.78;;;3.30;99.90;;;;;;5043728;28;20194;-73
2022/12/19 10:39:26;;;;;;;7.32;6.63;;;3.40;99.90;;;;;;5038942;28;20218;-74
2022/12/19 10:43:53;;;;;;;8.75;7.95;;;3.50;99.90;;;;;;5086230;27;20290;-75
2022/12/19 10:46:25;;;;;;;7.78;7.10;;;3.60;99.90;;;;;;5092759;28;20210;-76
2022/12/19 10:48:52;;;;;;;9.75;8.60;;;3.80;99.90;;;;;;5078028;28;20225;-77
2022/12/19 10:51:59;;;;;;;9.65;8.80;;;4.00;99.90;;;;;;5010746;27;2060968;-77
2022/12/19 10:54:38;;;;;;;9.75;8.75;;;4.00;99.90;;;;;;5053688;28;20215;-78
2022/12/19 10:57:25;;;;;;;8.38;7.57;;;4.00;99.90;;;;;;5025750;28;20815;-77
2022/12/19 10:59:56;;;;;;;7.68;6.95;;;4.10;99.90;;;;;;5015306;28;22680;-77
2022/12/19 11:02:33;;;;;;;8.02;7.32;;;4.10;99.90;;;;;;5013750;28;20206;-78
2022/12/19 11:05:02;;;;;;;8.80;8.00;;;4.10;99.90;;;;;;5011281;28;20226;-74
2022/12/19 11:07:30;;;;;;;12.38;7.57;;;4.10;99.90;;;;;;5013310;28;20735;-76
2022/12/19 11:09:57;;;;;;;11.93;7.60;;;4.20;99.90;;;;;;5014409;28;20227;-76
2022/12/19 11:12:26;;;;;;;8.85;6.85;;;4.40;99.90;;;;;;5009890;28;20208;-76
2022/12/19 11:15:06;;;;;;;7.47;6.78;;;4.70;99.90;;;;;;5012322;28;20231;-76
2022/12/19 11:17:37;;;;;;;7.10;6.40;;;5.00;99.90;;;;;;5014615;28;20554;-77
2022/12/19 11:20:13;;;;;;;6.85;6.25;;;5.30;99.90;;;;;;5009318;28;20220;-76
2022/12/19 11:22:52;;;;;;;7.57;6.72;;;5.70;99.90;;;;;;5009736;28;20199;-75
2022/12/19 11:25:21;;;;;;;7.38;6.70;;;5.90;99.90;;;;;;5008994;28;20622;-74
2022/12/19 11:27:49;;;;;;;6.68;6.07;;;5.80;99.90;;;;;;5011692;28;20790;-77
2022/12/19 11:30:23;;;;;;;8.32;7.57;;;5.70;99.90;;;;;;5014142;28;20290;-76
2022/12/19 11:33:07;;;;;;;8.88;6.90;;;5.60;99.90;;;;;;5015128;28;20212;-76
2022/12/19 11:35:46;;;;;;;8.32;7.53;;;5.70;99.90;;;;;;5015409;28;20291;-77
2022/12/19 11:38:18;;;;;;;8.75;6.70;;;5.60;99.90;;;;;;5023334;28;20219;-80
2022/12/19 11:40:49;;;;;;;7.93;6.40;;;5.80;99.90;;;;;;5024704;28;20842;-77
2022/12/19 11:43:24;;;;;;;8.25;7.40;;;5.80;99.90;;;;;;5014848;28;20229;-79
2022/12/19 11:45:59;;;;;;;7.05;6.45;;;6.00;99.90;;;;;;5015538;28;20204;-77
2022/12/19 11:48:36;;;;;;;7.18;6.57;;;6.10;99.90;;;;;;5014608;28;20558;-75
2022/12/19 11:51:12;;;;;;;6.30;5.78;;;6.30;99.90;;;;;;5013286;28;20222;-75
2022/12/19 11:53:49;;;;;;;7.53;6.75;;;6.30;99.90;;;;;;5014882;28;20230;-75
2022/12/19 11:56:21;;;;;;;8.32;7.38;;;6.30;99.90;;;;;;5016799;28;20226;-76
2022/12/19 11:58:51;;;;;;;7.63;6.80;;;6.20;99.90;;;;;;5010341;28;20224;-75
2022/12/19 12:01:39;;;;;;;12.27;7.20;;;6.10;99.90;;;;;;5002062;28;20188;-76
2022/12/19 12:04:47;;;;;;;9.35;8.10;;;6.00;99.90;;;;;;5004186;28;20430;-75
2022/12/19 12:07:15;;;;;;;8.40;7.60;;;6.00;99.90;;;;;;5002582;28;20224;-75
2022/12/19 12:09:49;;;;;;;8.32;7.40;;;5.90;99.90;;;;;;5002796;28;20216;-76
2022/12/19 12:12:23;;;;;;;8.55;7.65;;;5.90;99.90;;;;;;5000325;28;20219;-76
2022/12/19 12:15:10;;;;;;;7.97;7.18;;;5.90;99.90;;;;;;4996571;28;20325;-76
2022/12/19 12:17:51;;;;;;;8.27;6.82;;;5.90;99.90;;;;;;4998884;28;20224;-77
2022/12/19 12:20:25;;;;;;;8.85;7.95;;;5.80;99.90;;;;;;4997932;28;20224;-76
2022/12/19 12:23:02;;;;;;;9.52;8.52;;;5.70;99.90;;;;;;5003113;28;20203;-75
2022/12/19 12:25:47;;;;;;;9.45;8.55;;;5.70;99.90;;;;;;4999261;28;20219;-75
2022/12/19 12:28:43;;;;;;;9.75;7.93;;;5.80;99.90;;;;;;4999398;28;20212;-75
2022/12/19 12:31:20;;;;;;;9.23;8.27;;;5.90;99.90;;;;;;5006837;28;20401;-77
2022/12/19 12:33:59;;;;;;;9.07;8.18;;;6.10;99.90;;;;;;5005415;28;20659;-75
2022/12/19 12:36:36;;;;;;;8.48;7.68;;;6.30;99.90;;;;;;4981100;28;20316;-76
2022/12/19 12:39:11;;;;;;;9.02;8.05;;;6.30;99.90;;;;;;4981672;28;20587;-76
2022/12/19 12:42:04;;;;;;;8.60;7.72;;;6.20;99.90;;;;;;4984995;28;20263;-77
2022/12/19 12:44:34;;;;;;;9.15;7.55;;;6.00;99.90;;;;;;4983033;28;20228;-76
2022/12/19 12:47:06;;;;;;;10.38;7.53;;;5.90;99.90;;;;;;4981524;28;20213;-76
2022/12/19 12:49:42;;;;;;;8.52;7.70;;;5.80;99.90;;;;;;4980727;28;20239;-74
2022/12/19 12:52:14;;;;;;;9.05;8.10;;;5.90;99.90;;;;;;4984431;28;20217;-78
2022/12/19 12:54:45;;;;;;;8.88;7.90;;;5.90;99.90;;;;;;4981003;28;20221;-76
2022/12/19 12:57:32;;;;;;;8.23;7.40;;;5.90;99.90;;;;;;4978331;28;20411;-75
2022/12/19 13:00:22;;;;;;;8.50;7.70;;;5.90;99.90;;;;;;4979162;28;20228;-77
2022/12/19 13:02:57;;;;;;;13.10;9.40;;;5.80;99.90;;;;;;4980771;28;20679;-76
2022/12/19 13:05:50;;;;;;;18.05;10.60;;;5.90;99.90;;;;;;4979912;28;20750;-75
2022/12/19 13:08:35;;;;;;;11.07;9.40;;;6.00;99.90;;;;;;4979136;28;20312;-75
2022/12/19 13:14:44;;;;;;;9.52;7.30;;;5.80;99.90;;;;;;4954410;28;20216;-76
2022/12/19 13:17:13;;;;;;;12.48;7.80;;;5.80;99.90;;;;;;5000321;28;20212;-76
2022/12/19 13:19:52;;;;;;;8.52;7.72;;;5.60;99.90;;;;;;4988623;28;20260;-76
2022/12/19 13:22:22;;;;;;;8.38;7.30;;;5.40;99.90;;;;;;4973909;28;20574;-74
2022/12/19 13:24:51;;;;;;;7.70;7.10;;;5.40;99.90;;;;;;5000834;28;20215;-75
2022/12/19 13:27:37;;;;;;;8.45;7.15;;;5.50;99.90;;;;;;5002033;28;20231;-75
2022/12/19 13:30:15;;;;;;;7.72;6.93;;;5.40;99.90;;;;;;4991200;28;20224;-77
2022/12/19 13:33:10;;;;;;;8.68;7.70;;;5.10;99.90;;;;;;4975687;28;20679;-76
2022/12/19 13:35:37;;;;;;;8.05;7.25;;;4.70;99.90;;;;;;4983545;28;20319;-76